sensor_id;sensor_type;location;lat;lon;timestamp;P1;durP1;ratioP1;P2;durP2;ratioP2
25341;SDS011;13298;48.792;9.154;2023-08-06T00:00:05;5.15;;;4.00;;
25341;SDS011;13298;48.792;9.154;2023-08-06T00:02:31;5.47;;;4.70;;
25341;SDS011;13298;48.792;9.154;2023-08-06T00:04:57;5.75;;;4.38;;
25341;SDS011;13298;48.792;9.154;2023-08-06T00:07:22;4.85;;;4.07;;
25341;SDS011;13298;48.792;9.154;2023-08-06T00:09:48;4.93;;;4.18;;
25341;SDS011;13298;48.792;9.154;2023-08-06T00:12:14;5.13;;;3.60;;
25341;SDS011;13298;48.792;9.154;2023-08-06T00:14:39;3.85;;;3.08;;
25341;SDS011;13298;48.792;9.154;2023-08-06T00:17:05;3.38;;;3.03;;
25341;SDS011;13298;48.792;9.154;2023-08-06T00:19:31;3.45;;;3.00;;
25341;SDS011;13298;48.792;9.154;2023-08-06T00:21:57;3.40;;;2.80;;
25341;SDS011;13298;48.792;9.154;2023-08-06T00:24:23;3.13;;;2.80;;
25341;SDS011;13298;48.792;9.154;2023-08-06T00:26:49;3.30;;;3.00;;
25341;SDS011;13298;48.792;9.154;2023-08-06T00:29:15;3.97;;;2.97;;
25341;SDS011;13298;48.792;9.154;2023-08-06T00:31:41;3.60;;;2.95;;
25341;SDS011;13298;48.792;9.154;2023-08-06T00:34:06;6.18;;;3.00;;
25341;SDS011;13298;48.792;9.154;2023-08-06T00:36:33;5.55;;;2.75;;
25341;SDS011;13298;48.792;9.154;2023-08-06T00:38:58;3.15;;;2.70;;
25341;SDS011;13298;48.792;9.154;2023-08-06T00:41:24;3.80;;;2.90;;
25341;SDS011;13298;48.792;9.154;2023-08-06T00:43:50;3.95;;;2.83;;
25341;SDS011;13298;48.792;9.154;2023-08-06T00:46:16;3.60;;;2.65;;
25341;SDS011;13298;48.792;9.154;2023-08-06T00:48:41;4.50;;;2.65;;
25341;SDS011;13298;48.792;9.154;2023-08-06T00:51:08;3.97;;;2.67;;
25341;SDS011;13298;48.792;9.154;2023-08-06T00:53:37;3.10;;;2.47;;
25341;SDS011;13298;48.792;9.154;2023-08-06T00:56:03;2.42;;;2.22;;
25341;SDS011;13298;48.792;9.154;2023-08-06T00:58:29;2.97;;;2.65;;
25341;SDS011;13298;48.792;9.154;2023-08-06T01:00:55;3.08;;;2.40;;
25341;SDS011;13298;48.792;9.154;2023-08-06T01:03:21;3.00;;;2.65;;
25341;SDS011;13298;48.792;9.154;2023-08-06T01:05:46;3.15;;;2.38;;
25341;SDS011;13298;48.792;9.154;2023-08-06T01:19:01;6.25;;;2.70;;
25341;SDS011;13298;48.792;9.154;2023-08-06T01:21:27;5.28;;;3.08;;
25341;SDS011;13298;48.792;9.154;2023-08-06T01:23:53;3.70;;;2.95;;
25341;SDS011;13298;48.792;9.154;2023-08-06T01:26:21;3.92;;;3.10;;
25341;SDS011;13298;48.792;9.154;2023-08-06T01:28:58;3.58;;;3.20;;
25341;SDS011;13298;48.792;9.154;2023-08-06T01:31:39;5.40;;;3.80;;
25341;SDS011;13298;48.792;9.154;2023-08-06T01:34:09;4.32;;;3.33;;
25341;SDS011;13298;48.792;9.154;2023-08-06T01:36:42;4.30;;;2.78;;
25341;SDS011;13298;48.792;9.154;2023-08-06T01:39:08;4.95;;;2.67;;
25341;SDS011;13298;48.792;9.154;2023-08-06T01:41:34;5.65;;;2.88;;
25341;SDS011;13298;48.792;9.154;2023-08-06T01:44:00;4.57;;;2.72;;
25341;SDS011;13298;48.792;9.154;2023-08-06T01:46:25;3.47;;;3.08;;
25341;SDS011;13298;48.792;9.154;2023-08-06T01:48:51;3.17;;;2.85;;
25341;SDS011;13298;48.792;9.154;2023-08-06T01:51:17;3.28;;;2.83;;
25341;SDS011;13298;48.792;9.154;2023-08-06T01:53:42;3.15;;;2.80;;
25341;SDS011;13298;48.792;9.154;2023-08-06T01:56:08;4.07;;;3.10;;
25341;SDS011;13298;48.792;9.154;2023-08-06T01:58:34;3.55;;;3.03;;
25341;SDS011;13298;48.792;9.154;2023-08-06T02:01:00;4.00;;;3.00;;
25341;SDS011;13298;48.792;9.154;2023-08-06T02:03:27;3.83;;;3.20;;
25341;SDS011;13298;48.792;9.154;2023-08-06T02:05:53;4.30;;;2.80;;
25341;SDS011;13298;48.792;9.154;2023-08-06T02:08:19;2.40;;;2.20;;
25341;SDS011;13298;48.792;9.154;2023-08-06T02:10:44;4.18;;;2.65;;
25341;SDS011;13298;48.792;9.154;2023-08-06T02:13:10;3.97;;;2.47;;
25341;SDS011;13298;48.792;9.154;2023-08-06T02:15:41;3.97;;;2.80;;
25341;SDS011;13298;48.792;9.154;2023-08-06T02:18:14;3.15;;;2.50;;
25341;SDS011;13298;48.792;9.154;2023-08-06T02:20:40;4.88;;;2.70;;
25341;SDS011;13298;48.792;9.154;2023-08-06T02:23:06;3.75;;;2.80;;
25341;SDS011;13298;48.792;9.154;2023-08-06T02:25:32;3.20;;;2.42;;
25341;SDS011;13298;48.792;9.154;2023-08-06T02:27:58;2.50;;;2.30;;
25341;SDS011;13298;48.792;9.154;2023-08-06T02:30:24;3.63;;;2.53;;
25341;SDS011;13298;48.792;9.154;2023-08-06T02:32:49;3.72;;;2.95;;
25341;SDS011;13298;48.792;9.154;2023-08-06T02:35:15;3.13;;;2.67;;
25341;SDS011;13298;48.792;9.154;2023-08-06T02:37:41;6.57;;;3.00;;
25341;SDS011;13298;48.792;9.154;2023-08-06T02:40:07;2.78;;;2.58;;
25341;SDS011;13298;48.792;9.154;2023-08-06T02:42:33;3.15;;;2.80;;
25341;SDS011;13298;48.792;9.154;2023-08-06T02:44:58;5.32;;;2.97;;
25341;SDS011;13298;48.792;9.154;2023-08-06T02:47:24;3.38;;;2.67;;
25341;SDS011;13298;48.792;9.154;2023-08-06T02:49:50;2.88;;;2.58;;
25341;SDS011;13298;48.792;9.154;2023-08-06T02:52:15;3.25;;;2.78;;
25341;SDS011;13298;48.792;9.154;2023-08-06T02:54:42;3.50;;;2.58;;
25341;SDS011;13298;48.792;9.154;2023-08-06T02:57:08;4.28;;;2.67;;
25341;SDS011;13298;48.792;9.154;2023-08-06T02:59:33;4.65;;;3.00;;
25341;SDS011;13298;48.792;9.154;2023-08-06T03:01:59;3.00;;;2.70;;
25341;SDS011;13298;48.792;9.154;2023-08-06T03:04:25;3.00;;;2.80;;
25341;SDS011;13298;48.792;9.154;2023-08-06T03:06:50;4.47;;;2.90;;
25341;SDS011;13298;48.792;9.154;2023-08-06T03:09:17;5.47;;;2.70;;
25341;SDS011;13298;48.792;9.154;2023-08-06T03:11:43;3.38;;;2.72;;
25341;SDS011;13298;48.792;9.154;2023-08-06T03:14:08;3.20;;;2.85;;
25341;SDS011;13298;48.792;9.154;2023-08-06T03:16:34;4.63;;;3.00;;
25341;SDS011;13298;48.792;9.154;2023-08-06T03:19:00;4.30;;;3.00;;
25341;SDS011;13298;48.792;9.154;2023-08-06T03:21:26;4.20;;;2.78;;
25341;SDS011;13298;48.792;9.154;2023-08-06T03:23:52;4.88;;;3.00;;
25341;SDS011;13298;48.792;9.154;2023-08-06T03:26:18;5.03;;;2.95;;
25341;SDS011;13298;48.792;9.154;2023-08-06T03:28:44;5.00;;;3.10;;
25341;SDS011;13298;48.792;9.154;2023-08-06T03:31:09;5.20;;;2.55;;
25341;SDS011;13298;48.792;9.154;2023-08-06T03:33:35;5.00;;;3.00;;
25341;SDS011;13298;48.792;9.154;2023-08-06T03:36:01;2.78;;;2.42;;
25341;SDS011;13298;48.792;9.154;2023-08-06T03:38:27;3.97;;;2.58;;
25341;SDS011;13298;48.792;9.154;2023-08-06T03:40:53;2.42;;;2.10;;
25341;SDS011;13298;48.792;9.154;2023-08-06T03:43:19;3.15;;;2.25;;
25341;SDS011;13298;48.792;9.154;2023-08-06T03:45:44;4.03;;;2.40;;
25341;SDS011;13298;48.792;9.154;2023-08-06T03:48:10;4.00;;;2.88;;
25341;SDS011;13298;48.792;9.154;2023-08-06T03:50:36;3.08;;;2.20;;
25341;SDS011;13298;48.792;9.154;2023-08-06T03:53:03;3.40;;;2.20;;
25341;SDS011;13298;48.792;9.154;2023-08-06T03:55:28;3.00;;;2.30;;
25341;SDS011;13298;48.792;9.154;2023-08-06T03:57:54;4.45;;;2.22;;
25341;SDS011;13298;48.792;9.154;2023-08-06T04:00:20;3.78;;;2.28;;
25341;SDS011;13298;48.792;9.154;2023-08-06T04:02:45;3.25;;;2.60;;
25341;SDS011;13298;48.792;9.154;2023-08-06T04:05:11;8.20;;;2.45;;
25341;SDS011;13298;48.792;9.154;2023-08-06T04:07:37;4.88;;;2.40;;
25341;SDS011;13298;48.792;9.154;2023-08-06T04:10:03;2.60;;;2.17;;
25341;SDS011;13298;48.792;9.154;2023-08-06T04:12:30;3.03;;;2.25;;
25341;SDS011;13298;48.792;9.154;2023-08-06T04:14:57;6.30;;;2.47;;
25341;SDS011;13298;48.792;9.154;2023-08-06T04:17:23;2.80;;;2.38;;
25341;SDS011;13298;48.792;9.154;2023-08-06T04:19:53;5.07;;;2.58;;
25341;SDS011;13298;48.792;9.154;2023-08-06T04:22:20;5.25;;;2.38;;
25341;SDS011;13298;48.792;9.154;2023-08-06T04:24:47;3.70;;;2.38;;
25341;SDS011;13298;48.792;9.154;2023-08-06T04:27:13;3.63;;;2.20;;
25341;SDS011;13298;48.792;9.154;2023-08-06T04:29:40;2.45;;;2.00;;
25341;SDS011;13298;48.792;9.154;2023-08-06T04:32:07;5.55;;;2.20;;
25341;SDS011;13298;48.792;9.154;2023-08-06T04:34:35;2.60;;;1.92;;
25341;SDS011;13298;48.792;9.154;2023-08-06T04:37:01;2.70;;;2.10;;
25341;SDS011;13298;48.792;9.154;2023-08-06T04:39:28;3.35;;;1.85;;
25341;SDS011;13298;48.792;9.154;2023-08-06T04:41:54;2.20;;;1.77;;
25341;SDS011;13298;48.792;9.154;2023-08-06T04:44:23;3.13;;;2.10;;
25341;SDS011;13298;48.792;9.154;2023-08-06T04:46:49;4.78;;;2.30;;
25341;SDS011;13298;48.792;9.154;2023-08-06T04:49:15;2.78;;;1.90;;
25341;SDS011;13298;48.792;9.154;2023-08-06T04:51:40;3.75;;;2.10;;
25341;SDS011;13298;48.792;9.154;2023-08-06T04:54:06;7.25;;;2.20;;
25341;SDS011;13298;48.792;9.154;2023-08-06T04:56:32;4.85;;;2.00;;
25341;SDS011;13298;48.792;9.154;2023-08-06T04:58:58;3.13;;;2.10;;
25341;SDS011;13298;48.792;9.154;2023-08-06T05:01:24;3.92;;;1.80;;
25341;SDS011;13298;48.792;9.154;2023-08-06T05:03:50;3.70;;;2.30;;
25341;SDS011;13298;48.792;9.154;2023-08-06T05:06:16;4.63;;;2.05;;
25341;SDS011;13298;48.792;9.154;2023-08-06T05:08:41;2.70;;;2.03;;
25341;SDS011;13298;48.792;9.154;2023-08-06T05:11:07;3.45;;;2.03;;
25341;SDS011;13298;48.792;9.154;2023-08-06T05:13:34;2.70;;;1.95;;
25341;SDS011;13298;48.792;9.154;2023-08-06T05:16:00;3.17;;;1.80;;
25341;SDS011;13298;48.792;9.154;2023-08-06T05:18:25;2.45;;;1.80;;
25341;SDS011;13298;48.792;9.154;2023-08-06T05:20:51;2.85;;;1.88;;
25341;SDS011;13298;48.792;9.154;2023-08-06T05:23:17;3.10;;;1.70;;
25341;SDS011;13298;48.792;9.154;2023-08-06T05:25:42;3.75;;;1.50;;
25341;SDS011;13298;48.792;9.154;2023-08-06T05:28:08;3.83;;;1.63;;
25341;SDS011;13298;48.792;9.154;2023-08-06T05:30:34;1.83;;;1.40;;
25341;SDS011;13298;48.792;9.154;2023-08-06T05:33:04;2.22;;;1.50;;
25341;SDS011;13298;48.792;9.154;2023-08-06T05:35:30;2.58;;;1.50;;
25341;SDS011;13298;48.792;9.154;2023-08-06T05:37:56;2.80;;;1.67;;
25341;SDS011;13298;48.792;9.154;2023-08-06T05:40:21;2.00;;;1.33;;
25341;SDS011;13298;48.792;9.154;2023-08-06T05:42:47;1.88;;;1.60;;
25341;SDS011;13298;48.792;9.154;2023-08-06T05:45:13;1.98;;;1.20;;
25341;SDS011;13298;48.792;9.154;2023-08-06T05:47:39;2.38;;;1.30;;
25341;SDS011;13298;48.792;9.154;2023-08-06T05:50:05;2.03;;;1.02;;
25341;SDS011;13298;48.792;9.154;2023-08-06T05:52:32;1.90;;;1.20;;
25341;SDS011;13298;48.792;9.154;2023-08-06T05:54:57;2.80;;;1.20;;
25341;SDS011;13298;48.792;9.154;2023-08-06T05:57:23;2.15;;;1.33;;
25341;SDS011;13298;48.792;9.154;2023-08-06T05:59:49;2.70;;;1.33;;
25341;SDS011;13298;48.792;9.154;2023-08-06T06:02:14;1.17;;;0.90;;
25341;SDS011;13298;48.792;9.154;2023-08-06T06:04:41;3.88;;;0.90;;
25341;SDS011;13298;48.792;9.154;2023-08-06T06:07:06;2.15;;;1.00;;
25341;SDS011;13298;48.792;9.154;2023-08-06T06:09:32;2.33;;;0.80;;
25341;SDS011;13298;48.792;9.154;2023-08-06T06:11:58;2.10;;;0.90;;
25341;SDS011;13298;48.792;9.154;2023-08-06T06:14:23;1.33;;;0.68;;
25341;SDS011;13298;48.792;9.154;2023-08-06T06:16:49;3.90;;;0.80;;
25341;SDS011;13298;48.792;9.154;2023-08-06T06:19:15;2.88;;;1.13;;
25341;SDS011;13298;48.792;9.154;2023-08-06T06:21:40;0.55;;;0.52;;
25341;SDS011;13298;48.792;9.154;2023-08-06T06:24:06;0.95;;;0.70;;
25341;SDS011;13298;48.792;9.154;2023-08-06T06:26:33;1.00;;;0.63;;
25341;SDS011;13298;48.792;9.154;2023-08-06T06:28:59;2.40;;;0.50;;
25341;SDS011;13298;48.792;9.154;2023-08-06T06:31:24;2.25;;;0.60;;
25341;SDS011;13298;48.792;9.154;2023-08-06T06:33:50;0.77;;;0.50;;
25341;SDS011;13298;48.792;9.154;2023-08-06T06:36:18;2.30;;;0.52;;
25341;SDS011;13298;48.792;9.154;2023-08-06T06:38:44;2.33;;;0.60;;
25341;SDS011;13298;48.792;9.154;2023-08-06T06:41:09;1.90;;;0.55;;
25341;SDS011;13298;48.792;9.154;2023-08-06T06:43:35;0.68;;;0.40;;
25341;SDS011;13298;48.792;9.154;2023-08-06T06:46:03;2.88;;;0.52;;
25341;SDS011;13298;48.792;9.154;2023-08-06T06:48:29;1.08;;;0.60;;
25341;SDS011;13298;48.792;9.154;2023-08-06T06:50:57;2.95;;;0.70;;
25341;SDS011;13298;48.792;9.154;2023-08-06T06:53:24;1.27;;;0.50;;
25341;SDS011;13298;48.792;9.154;2023-08-06T06:55:56;0.98;;;0.50;;
25341;SDS011;13298;48.792;9.154;2023-08-06T06:58:29;1.38;;;0.60;;
25341;SDS011;13298;48.792;9.154;2023-08-06T07:00:58;2.63;;;0.82;;
25341;SDS011;13298;48.792;9.154;2023-08-06T07:03:24;1.30;;;0.40;;
25341;SDS011;13298;48.792;9.154;2023-08-06T07:05:50;2.42;;;0.60;;
25341;SDS011;13298;48.792;9.154;2023-08-06T07:08:16;1.90;;;0.70;;
25341;SDS011;13298;48.792;9.154;2023-08-06T07:10:42;2.03;;;0.55;;
25341;SDS011;13298;48.792;9.154;2023-08-06T07:13:08;1.42;;;0.60;;
25341;SDS011;13298;48.792;9.154;2023-08-06T07:15:35;1.42;;;0.50;;
25341;SDS011;13298;48.792;9.154;2023-08-06T07:18:01;1.75;;;0.30;;
25341;SDS011;13298;48.792;9.154;2023-08-06T07:20:26;0.82;;;0.52;;
25341;SDS011;13298;48.792;9.154;2023-08-06T07:22:56;1.25;;;0.60;;
25341;SDS011;13298;48.792;9.154;2023-08-06T07:25:23;0.82;;;0.40;;
25341;SDS011;13298;48.792;9.154;2023-08-06T07:27:48;0.85;;;0.50;;
25341;SDS011;13298;48.792;9.154;2023-08-06T07:30:14;1.25;;;0.50;;
25341;SDS011;13298;48.792;9.154;2023-08-06T07:32:40;0.70;;;0.50;;
25341;SDS011;13298;48.792;9.154;2023-08-06T07:35:06;0.40;;;0.40;;
25341;SDS011;13298;48.792;9.154;2023-08-06T07:37:34;2.58;;;0.60;;
25341;SDS011;13298;48.792;9.154;2023-08-06T07:40:00;2.85;;;0.55;;
25341;SDS011;13298;48.792;9.154;2023-08-06T07:42:26;1.35;;;0.52;;
25341;SDS011;13298;48.792;9.154;2023-08-06T07:44:55;3.35;;;0.82;;
25341;SDS011;13298;48.792;9.154;2023-08-06T07:47:23;1.48;;;0.57;;
25341;SDS011;13298;48.792;9.154;2023-08-06T07:49:48;0.77;;;0.50;;
25341;SDS011;13298;48.792;9.154;2023-08-06T07:52:14;3.45;;;0.60;;
25341;SDS011;13298;48.792;9.154;2023-08-06T07:54:40;0.90;;;0.40;;
25341;SDS011;13298;48.792;9.154;2023-08-06T07:57:06;0.85;;;0.40;;
25341;SDS011;13298;48.792;9.154;2023-08-06T07:59:32;1.13;;;0.57;;
25341;SDS011;13298;48.792;9.154;2023-08-06T08:01:58;0.65;;;0.40;;
25341;SDS011;13298;48.792;9.154;2023-08-06T08:04:23;3.80;;;0.68;;
25341;SDS011;13298;48.792;9.154;2023-08-06T08:06:49;1.10;;;0.35;;
25341;SDS011;13298;48.792;9.154;2023-08-06T08:09:15;0.47;;;0.25;;
25341;SDS011;13298;48.792;9.154;2023-08-06T08:11:41;0.20;;;0.20;;
25341;SDS011;13298;48.792;9.154;2023-08-06T08:14:07;1.02;;;0.20;;
25341;SDS011;13298;48.792;9.154;2023-08-06T08:16:33;0.32;;;0.30;;
25341;SDS011;13298;48.792;9.154;2023-08-06T08:18:58;1.95;;;0.25;;
25341;SDS011;13298;48.792;9.154;2023-08-06T08:21:24;1.50;;;0.73;;
25341;SDS011;13298;48.792;9.154;2023-08-06T08:23:50;0.50;;;0.30;;
25341;SDS011;13298;48.792;9.154;2023-08-06T08:26:16;0.75;;;0.25;;
25341;SDS011;13298;48.792;9.154;2023-08-06T08:28:42;0.20;;;0.20;;
25341;SDS011;13298;48.792;9.154;2023-08-06T08:31:08;0.80;;;0.22;;
25341;SDS011;13298;48.792;9.154;2023-08-06T08:33:36;2.10;;;0.10;;
25341;SDS011;13298;48.792;9.154;2023-08-06T08:36:05;0.63;;;0.20;;
25341;SDS011;13298;48.792;9.154;2023-08-06T08:38:30;1.23;;;0.20;;
25341;SDS011;13298;48.792;9.154;2023-08-06T08:40:56;0.70;;;0.17;;
25341;SDS011;13298;48.792;9.154;2023-08-06T08:43:22;0.10;;;0.10;;
25341;SDS011;13298;48.792;9.154;2023-08-06T08:45:52;0.10;;;0.10;;
25341;SDS011;13298;48.792;9.154;2023-08-06T08:48:25;0.20;;;0.10;;
25341;SDS011;13298;48.792;9.154;2023-08-06T08:50:54;0.28;;;0.20;;
25341;SDS011;13298;48.792;9.154;2023-08-06T08:53:21;0.85;;;0.10;;
25341;SDS011;13298;48.792;9.154;2023-08-06T08:55:48;0.50;;;0.43;;
25341;SDS011;13298;48.792;9.154;2023-08-06T08:58:14;0.10;;;0.10;;
25341;SDS011;13298;48.792;9.154;2023-08-06T09:00:41;0.10;;;0.10;;
25341;SDS011;13298;48.792;9.154;2023-08-06T09:03:08;1.45;;;0.40;;
25341;SDS011;13298;48.792;9.154;2023-08-06T09:05:33;1.00;;;0.30;;
25341;SDS011;13298;48.792;9.154;2023-08-06T09:08:03;0.43;;;0.40;;
25341;SDS011;13298;48.792;9.154;2023-08-06T09:10:29;0.52;;;0.20;;
25341;SDS011;13298;48.792;9.154;2023-08-06T09:12:56;1.60;;;0.17;;
25341;SDS011;13298;48.792;9.154;2023-08-06T09:15:24;1.17;;;0.40;;
25341;SDS011;13298;48.792;9.154;2023-08-06T09:17:51;0.32;;;0.10;;
25341;SDS011;13298;48.792;9.154;2023-08-06T09:20:18;0.43;;;0.20;;
25341;SDS011;13298;48.792;9.154;2023-08-06T09:22:44;3.90;;;0.32;;
25341;SDS011;13298;48.792;9.154;2023-08-06T09:25:10;0.40;;;0.20;;
25341;SDS011;13298;48.792;9.154;2023-08-06T09:27:38;0.43;;;0.10;;
25341;SDS011;13298;48.792;9.154;2023-08-06T09:30:05;0.57;;;0.20;;
25341;SDS011;13298;48.792;9.154;2023-08-06T09:35:16;0.55;;;0.20;;
25341;SDS011;13298;48.792;9.154;2023-08-06T09:37:43;0.17;;;0.17;;
25341;SDS011;13298;48.792;9.154;2023-08-06T09:40:29;0.15;;;0.10;;
25341;SDS011;13298;48.792;9.154;2023-08-06T09:42:57;0.20;;;0.20;;
25341;SDS011;13298;48.792;9.154;2023-08-06T09:45:24;0.40;;;0.20;;
25341;SDS011;13298;48.792;9.154;2023-08-06T09:47:58;0.57;;;0.20;;
25341;SDS011;13298;48.792;9.154;2023-08-06T09:50:31;0.15;;;0.15;;
25341;SDS011;13298;48.792;9.154;2023-08-06T09:52:59;0.70;;;0.17;;
25341;SDS011;13298;48.792;9.154;2023-08-06T09:55:26;0.25;;;0.10;;
25341;SDS011;13298;48.792;9.154;2023-08-06T09:57:52;0.63;;;0.10;;
25341;SDS011;13298;48.792;9.154;2023-08-06T10:00:19;0.98;;;0.10;;
25341;SDS011;13298;48.792;9.154;2023-08-06T10:02:45;1.20;;;0.10;;
25341;SDS011;13298;48.792;9.154;2023-08-06T10:05:12;0.15;;;0.10;;
25341;SDS011;13298;48.792;9.154;2023-08-06T10:07:38;0.10;;;0.05;;
25341;SDS011;13298;48.792;9.154;2023-08-06T10:10:05;0.20;;;0.10;;
25341;SDS011;13298;48.792;9.154;2023-08-06T10:12:33;0.98;;;0.10;;
25341;SDS011;13298;48.792;9.154;2023-08-06T10:15:04;1.02;;;0.10;;
25341;SDS011;13298;48.792;9.154;2023-08-06T10:17:35;0.17;;;0.13;;
25341;SDS011;13298;48.792;9.154;2023-08-06T10:20:03;0.43;;;0.20;;
25341;SDS011;13298;48.792;9.154;2023-08-06T10:22:32;0.25;;;0.25;;
25341;SDS011;13298;48.792;9.154;2023-08-06T10:24:59;0.82;;;0.20;;
25341;SDS011;13298;48.792;9.154;2023-08-06T10:27:33;0.65;;;0.10;;
25341;SDS011;13298;48.792;9.154;2023-08-06T10:32:52;0.32;;;0.10;;
25341;SDS011;13298;48.792;9.154;2023-08-06T10:35:38;0.30;;;0.10;;
25341;SDS011;13298;48.792;9.154;2023-08-06T10:40:48;0.10;;;0.10;;
25341;SDS011;13298;48.792;9.154;2023-08-06T10:43:27;0.75;;;0.20;;
25341;SDS011;13298;48.792;9.154;2023-08-06T10:45:54;0.10;;;0.10;;
25341;SDS011;13298;48.792;9.154;2023-08-06T10:51:10;0.95;;;0.20;;
25341;SDS011;13298;48.792;9.154;2023-08-06T10:53:38;0.20;;;0.20;;
25341;SDS011;13298;48.792;9.154;2023-08-06T10:56:22;1.35;;;0.13;;
25341;SDS011;13298;48.792;9.154;2023-08-06T10:58:54;1.33;;;0.45;;
25341;SDS011;13298;48.792;9.154;2023-08-06T11:01:23;0.15;;;0.10;;
25341;SDS011;13298;48.792;9.154;2023-08-06T11:03:50;0.10;;;0.10;;
25341;SDS011;13298;48.792;9.154;2023-08-06T11:06:18;0.90;;;0.20;;
25341;SDS011;13298;48.792;9.154;2023-08-06T11:08:49;0.15;;;0.15;;
25341;SDS011;13298;48.792;9.154;2023-08-06T11:11:18;1.45;;;0.30;;
25341;SDS011;13298;48.792;9.154;2023-08-06T11:13:44;0.20;;;0.20;;
25341;SDS011;13298;48.792;9.154;2023-08-06T11:16:13;0.40;;;0.25;;
25341;SDS011;13298;48.792;9.154;2023-08-06T11:18:40;1.30;;;0.32;;
25341;SDS011;13298;48.792;9.154;2023-08-06T11:21:07;0.52;;;0.30;;
25341;SDS011;13298;48.792;9.154;2023-08-06T11:23:33;0.90;;;0.28;;
25341;SDS011;13298;48.792;9.154;2023-08-06T11:26:00;0.63;;;0.40;;
25341;SDS011;13298;48.792;9.154;2023-08-06T11:28:26;0.30;;;0.30;;
25341;SDS011;13298;48.792;9.154;2023-08-06T11:30:53;2.65;;;0.40;;
25341;SDS011;13298;48.792;9.154;2023-08-06T11:33:22;3.17;;;0.45;;
25341;SDS011;13298;48.792;9.154;2023-08-06T11:35:51;1.15;;;0.60;;
25341;SDS011;13298;48.792;9.154;2023-08-06T11:38:18;2.85;;;0.60;;
25341;SDS011;13298;48.792;9.154;2023-08-06T11:40:44;0.75;;;0.55;;
25341;SDS011;13298;48.792;9.154;2023-08-06T11:43:11;0.88;;;0.60;;
25341;SDS011;13298;48.792;9.154;2023-08-06T11:45:38;2.90;;;0.68;;
25341;SDS011;13298;48.792;9.154;2023-08-06T11:48:03;0.98;;;0.82;;
25341;SDS011;13298;48.792;9.154;2023-08-06T11:50:30;1.38;;;0.88;;
25341;SDS011;13298;48.792;9.154;2023-08-06T11:52:57;1.45;;;0.70;;
25341;SDS011;13298;48.792;9.154;2023-08-06T11:55:25;1.00;;;0.70;;
25341;SDS011;13298;48.792;9.154;2023-08-06T11:57:53;1.08;;;0.80;;
25341;SDS011;13298;48.792;9.154;2023-08-06T12:00:20;2.20;;;0.90;;
25341;SDS011;13298;48.792;9.154;2023-08-06T12:02:49;0.85;;;0.70;;
25341;SDS011;13298;48.792;9.154;2023-08-06T12:05:20;1.75;;;0.95;;
25341;SDS011;13298;48.792;9.154;2023-08-06T12:07:51;1.60;;;1.10;;
25341;SDS011;13298;48.792;9.154;2023-08-06T12:10:20;2.25;;;1.00;;
25341;SDS011;13298;48.792;9.154;2023-08-06T12:12:47;2.22;;;1.02;;
25341;SDS011;13298;48.792;9.154;2023-08-06T12:15:13;4.35;;;1.23;;
25341;SDS011;13298;48.792;9.154;2023-08-06T12:17:39;2.78;;;0.95;;
25341;SDS011;13298;48.792;9.154;2023-08-06T12:20:06;2.47;;;1.27;;
25341;SDS011;13298;48.792;9.154;2023-08-06T12:22:33;1.33;;;0.95;;
25341;SDS011;13298;48.792;9.154;2023-08-06T12:25:05;2.00;;;1.05;;
25341;SDS011;13298;48.792;9.154;2023-08-06T12:27:41;3.22;;;1.17;;
25341;SDS011;13298;48.792;9.154;2023-08-06T12:30:11;5.63;;;1.30;;
25341;SDS011;13298;48.792;9.154;2023-08-06T12:32:38;2.60;;;1.00;;
25341;SDS011;13298;48.792;9.154;2023-08-06T12:35:04;1.40;;;1.02;;
25341;SDS011;13298;48.792;9.154;2023-08-06T12:37:32;3.08;;;1.00;;
25341;SDS011;13298;48.792;9.154;2023-08-06T12:39:59;1.15;;;0.85;;
25341;SDS011;13298;48.792;9.154;2023-08-06T12:42:24;2.50;;;0.93;;
25341;SDS011;13298;48.792;9.154;2023-08-06T12:44:50;2.30;;;1.00;;
25341;SDS011;13298;48.792;9.154;2023-08-06T12:47:16;2.47;;;1.55;;
25341;SDS011;13298;48.792;9.154;2023-08-06T12:49:42;0.73;;;0.70;;
25341;SDS011;13298;48.792;9.154;2023-08-06T12:52:08;0.70;;;0.50;;
25341;SDS011;13298;48.792;9.154;2023-08-06T12:54:34;0.93;;;0.50;;
25341;SDS011;13298;48.792;9.154;2023-08-06T12:57:03;2.55;;;0.88;;
25341;SDS011;13298;48.792;9.154;2023-08-06T12:59:30;1.30;;;0.88;;
25341;SDS011;13298;48.792;9.154;2023-08-06T13:01:56;2.15;;;0.60;;
25341;SDS011;13298;48.792;9.154;2023-08-06T13:04:21;0.90;;;0.50;;
25341;SDS011;13298;48.792;9.154;2023-08-06T13:06:47;0.68;;;0.50;;
25341;SDS011;13298;48.792;9.154;2023-08-06T13:09:13;0.60;;;0.57;;
25341;SDS011;13298;48.792;9.154;2023-08-06T13:11:40;2.90;;;0.73;;
25341;SDS011;13298;48.792;9.154;2023-08-06T13:14:07;2.00;;;0.80;;
25341;SDS011;13298;48.792;9.154;2023-08-06T13:16:37;0.68;;;0.65;;
25341;SDS011;13298;48.792;9.154;2023-08-06T13:19:21;0.88;;;0.60;;
25341;SDS011;13298;48.792;9.154;2023-08-06T13:24:13;1.77;;;0.60;;
25341;SDS011;13298;48.792;9.154;2023-08-06T13:26:39;2.28;;;0.43;;
25341;SDS011;13298;48.792;9.154;2023-08-06T13:29:05;0.68;;;0.60;;
25341;SDS011;13298;48.792;9.154;2023-08-06T13:31:32;1.30;;;0.70;;
25341;SDS011;13298;48.792;9.154;2023-08-06T13:33:58;2.15;;;0.68;;
25341;SDS011;13298;48.792;9.154;2023-08-06T13:36:26;0.70;;;0.50;;
25341;SDS011;13298;48.792;9.154;2023-08-06T13:38:52;2.03;;;0.52;;
25341;SDS011;13298;48.792;9.154;2023-08-06T13:41:19;0.75;;;0.60;;
25341;SDS011;13298;48.792;9.154;2023-08-06T13:43:45;0.52;;;0.50;;
25341;SDS011;13298;48.792;9.154;2023-08-06T13:46:11;0.73;;;0.50;;
25341;SDS011;13298;48.792;9.154;2023-08-06T13:48:44;2.17;;;0.40;;
25341;SDS011;13298;48.792;9.154;2023-08-06T13:51:12;1.15;;;0.38;;
25341;SDS011;13298;48.792;9.154;2023-08-06T13:53:39;0.73;;;0.63;;
25341;SDS011;13298;48.792;9.154;2023-08-06T13:56:05;2.15;;;0.60;;
25341;SDS011;13298;48.792;9.154;2023-08-06T13:58:32;0.70;;;0.40;;
25341;SDS011;13298;48.792;9.154;2023-08-06T14:00:58;0.30;;;0.30;;
25341;SDS011;13298;48.792;9.154;2023-08-06T14:03:24;1.48;;;0.50;;
25341;SDS011;13298;48.792;9.154;2023-08-06T14:05:50;0.57;;;0.30;;
25341;SDS011;13298;48.792;9.154;2023-08-06T14:08:16;1.30;;;0.63;;
25341;SDS011;13298;48.792;9.154;2023-08-06T14:10:44;2.53;;;0.60;;
25341;SDS011;13298;48.792;9.154;2023-08-06T14:13:10;0.88;;;0.65;;
25341;SDS011;13298;48.792;9.154;2023-08-06T14:15:36;0.55;;;0.47;;
25341;SDS011;13298;48.792;9.154;2023-08-06T14:18:04;2.15;;;0.70;;
25341;SDS011;13298;48.792;9.154;2023-08-06T14:20:36;1.17;;;0.50;;
25341;SDS011;13298;48.792;9.154;2023-08-06T14:23:01;0.40;;;0.40;;
25341;SDS011;13298;48.792;9.154;2023-08-06T14:25:27;0.90;;;0.40;;
25341;SDS011;13298;48.792;9.154;2023-08-06T14:27:53;2.45;;;0.70;;
25341;SDS011;13298;48.792;9.154;2023-08-06T14:30:19;0.30;;;0.30;;
25341;SDS011;13298;48.792;9.154;2023-08-06T14:32:45;1.23;;;0.60;;
25341;SDS011;13298;48.792;9.154;2023-08-06T14:35:10;2.15;;;0.50;;
25341;SDS011;13298;48.792;9.154;2023-08-06T14:37:36;1.80;;;0.60;;
25341;SDS011;13298;48.792;9.154;2023-08-06T14:40:02;2.10;;;0.70;;
25341;SDS011;13298;48.792;9.154;2023-08-06T14:42:28;0.68;;;0.60;;
25341;SDS011;13298;48.792;9.154;2023-08-06T14:44:54;3.03;;;1.00;;
25341;SDS011;13298;48.792;9.154;2023-08-06T14:47:20;0.60;;;0.50;;
25341;SDS011;13298;48.792;9.154;2023-08-06T14:49:45;0.82;;;0.50;;
25341;SDS011;13298;48.792;9.154;2023-08-06T14:52:13;0.52;;;0.32;;
25341;SDS011;13298;48.792;9.154;2023-08-06T14:54:38;1.67;;;0.60;;
25341;SDS011;13298;48.792;9.154;2023-08-06T14:57:04;2.83;;;0.75;;
25341;SDS011;13298;48.792;9.154;2023-08-06T14:59:30;0.55;;;0.50;;
25341;SDS011;13298;48.792;9.154;2023-08-06T15:01:55;0.68;;;0.50;;
25341;SDS011;13298;48.792;9.154;2023-08-06T15:04:21;1.42;;;0.47;;
25341;SDS011;13298;48.792;9.154;2023-08-06T15:06:48;0.70;;;0.60;;
25341;SDS011;13298;48.792;9.154;2023-08-06T15:09:14;0.40;;;0.40;;